Terminal Aerodrome Forecast
Issued by NWS

Home | Current Version | Previous Version | Text Only | Print | Product List | Glossary On
Versions: 1 2 3 4 5 6 7 8 9 10 11 12 13
000
FTUS43 KMPX 292320
TAFRWF
TAF
KRWF 292320Z 3000/3024 30015G22KT P6SM VCSH BKN040
     FM300100 28009KT P6SM SCT050 BKN100
     FM300500 27007KT P6SM BKN120
     FM301400 30014G21KT P6SM BKN025 OVC050=

USA.gov is the U.S. government's official web portal to all federal, state and local government web resources and services.